sensor_id;sensor_type;location;lat;lon;timestamp;temperature;humidity
13091;DHT22;6611;52.604;13.438;2022-08-18T00:02:07;22.72;73.42
13091;DHT22;6611;52.604;13.438;2022-08-18T00:07:11;22.68;73.42
13091;DHT22;6611;52.604;13.438;2022-08-18T00:12:17;22.71;73.25
13091;DHT22;6611;52.604;13.438;2022-08-18T00:17:20;22.67;73.24
13091;DHT22;6611;52.604;13.438;2022-08-18T00:22:22;22.60;73.43
13091;DHT22;6611;52.604;13.438;2022-08-18T00:27:27;22.58;73.37
13091;DHT22;6611;52.604;13.438;2022-08-18T00:32:31;22.48;73.75
13091;DHT22;6611;52.604;13.438;2022-08-18T00:37:33;22.44;73.85
13091;DHT22;6611;52.604;13.438;2022-08-18T00:42:42;22.39;74.06
13091;DHT22;6611;52.604;13.438;2022-08-18T00:47:44;22.30;74.33
13091;DHT22;6611;52.604;13.438;2022-08-18T00:52:49;22.19;74.51
13091;DHT22;6611;52.604;13.438;2022-08-18T00:57:58;22.08;74.90
13091;DHT22;6611;52.604;13.438;2022-08-18T01:03:06;22.01;75.35
13091;DHT22;6611;52.604;13.438;2022-08-18T01:08:12;21.93;75.33
13091;DHT22;6611;52.604;13.438;2022-08-18T01:13:16;21.86;75.48
13091;DHT22;6611;52.604;13.438;2022-08-18T01:18:18;21.79;75.42
13091;DHT22;6611;52.604;13.438;2022-08-18T01:23:38;21.79;75.20
13091;DHT22;6611;52.604;13.438;2022-08-18T01:28:42;21.85;74.84
13091;DHT22;6611;52.604;13.438;2022-08-18T01:33:44;21.82;74.74
13091;DHT22;6611;52.604;13.438;2022-08-18T01:38:50;21.81;75.10
13091;DHT22;6611;52.604;13.438;2022-08-18T01:43:52;21.81;75.19
13091;DHT22;6611;52.604;13.438;2022-08-18T01:48:54;21.77;75.36
13091;DHT22;6611;52.604;13.438;2022-08-18T01:53:59;21.73;75.29
13091;DHT22;6611;52.604;13.438;2022-08-18T01:59:01;21.69;75.40
13091;DHT22;6611;52.604;13.438;2022-08-18T02:04:03;21.64;75.34
13091;DHT22;6611;52.604;13.438;2022-08-18T02:09:07;21.58;75.73
13091;DHT22;6611;52.604;13.438;2022-08-18T02:14:09;21.48;75.95
13091;DHT22;6611;52.604;13.438;2022-08-18T02:19:10;21.47;75.93
13091;DHT22;6611;52.604;13.438;2022-08-18T02:24:13;21.41;75.73
13091;DHT22;6611;52.604;13.438;2022-08-18T02:29:15;21.37;75.80
13091;DHT22;6611;52.604;13.438;2022-08-18T02:34:17;21.34;75.47
13091;DHT22;6611;52.604;13.438;2022-08-18T02:39:20;21.26;75.31
13091;DHT22;6611;52.604;13.438;2022-08-18T02:44:22;21.20;75.35
13091;DHT22;6611;52.604;13.438;2022-08-18T02:49:23;21.16;75.48
13091;DHT22;6611;52.604;13.438;2022-08-18T02:54:26;21.15;75.21
13091;DHT22;6611;52.604;13.438;2022-08-18T02:59:28;21.12;74.98
13091;DHT22;6611;52.604;13.438;2022-08-18T03:04:30;21.03;75.32
13091;DHT22;6611;52.604;13.438;2022-08-18T03:09:34;21.00;75.54
13091;DHT22;6611;52.604;13.438;2022-08-18T03:14:37;20.89;75.93
13091;DHT22;6611;52.604;13.438;2022-08-18T03:19:39;20.85;76.18
13091;DHT22;6611;52.604;13.438;2022-08-18T03:24:46;20.81;75.66
13091;DHT22;6611;52.604;13.438;2022-08-18T03:29:48;20.74;76.15
13091;DHT22;6611;52.604;13.438;2022-08-18T03:34:50;20.70;76.30
13091;DHT22;6611;52.604;13.438;2022-08-18T03:39:53;20.64;76.46
13091;DHT22;6611;52.604;13.438;2022-08-18T03:44:54;20.60;76.64
13091;DHT22;6611;52.604;13.438;2022-08-18T03:49:56;20.55;76.73
13091;DHT22;6611;52.604;13.438;2022-08-18T03:55:00;20.60;76.38
13091;DHT22;6611;52.604;13.438;2022-08-18T04:00:02;20.60;76.30
13091;DHT22;6611;52.604;13.438;2022-08-18T04:05:05;20.53;76.43
13091;DHT22;6611;52.604;13.438;2022-08-18T04:10:09;20.51;76.68
13091;DHT22;6611;52.604;13.438;2022-08-18T04:15:10;20.45;77.11
13091;DHT22;6611;52.604;13.438;2022-08-18T04:20:12;20.43;76.99
13091;DHT22;6611;52.604;13.438;2022-08-18T04:25:15;20.48;76.81
13091;DHT22;6611;52.604;13.438;2022-08-18T04:30:16;20.55;76.51
13091;DHT22;6611;52.604;13.438;2022-08-18T04:35:18;20.61;76.78
13091;DHT22;6611;52.604;13.438;2022-08-18T04:40:22;20.64;76.70
13091;DHT22;6611;52.604;13.438;2022-08-18T04:45:26;20.72;76.27
13091;DHT22;6611;52.604;13.438;2022-08-18T04:50:28;20.78;76.13
13091;DHT22;6611;52.604;13.438;2022-08-18T04:55:31;20.84;76.33
13091;DHT22;6611;52.604;13.438;2022-08-18T05:00:32;20.92;76.20
13091;DHT22;6611;52.604;13.438;2022-08-18T05:05:34;21.07;75.80
13091;DHT22;6611;52.604;13.438;2022-08-18T05:10:37;21.39;75.13
13091;DHT22;6611;52.604;13.438;2022-08-18T05:15:39;21.62;74.46
13091;DHT22;6611;52.604;13.438;2022-08-18T05:20:41;21.84;74.17
13091;DHT22;6611;52.604;13.438;2022-08-18T05:25:44;21.91;74.25
13091;DHT22;6611;52.604;13.438;2022-08-18T05:30:46;21.99;74.11
13091;DHT22;6611;52.604;13.438;2022-08-18T05:35:50;22.01;73.90
13091;DHT22;6611;52.604;13.438;2022-08-18T05:41:05;22.08;74.06
13091;DHT22;6611;52.604;13.438;2022-08-18T05:46:09;22.13;74.24
13091;DHT22;6611;52.604;13.438;2022-08-18T05:51:13;22.21;74.62
13091;DHT22;6611;52.604;13.438;2022-08-18T05:56:23;22.32;74.61
13091;DHT22;6611;52.604;13.438;2022-08-18T06:01:45;22.44;74.74
13091;DHT22;6611;52.604;13.438;2022-08-18T06:06:51;22.61;73.82
13091;DHT22;6611;52.604;13.438;2022-08-18T06:12:06;22.78;73.50
13091;DHT22;6611;52.604;13.438;2022-08-18T06:17:24;22.96;72.62
13091;DHT22;6611;52.604;13.438;2022-08-18T06:22:35;23.26;72.44
13091;DHT22;6611;52.604;13.438;2022-08-18T06:27:46;23.46;69.51
13091;DHT22;6611;52.604;13.438;2022-08-18T06:33:09;23.81;66.00
13091;DHT22;6611;52.604;13.438;2022-08-18T06:38:27;24.13;64.76
13091;DHT22;6611;52.604;13.438;2022-08-18T06:43:48;24.43;64.84
13091;DHT22;6611;52.604;13.438;2022-08-18T06:48:54;24.71;62.54
13091;DHT22;6611;52.604;13.438;2022-08-18T06:53:59;24.82;62.35
13091;DHT22;6611;52.604;13.438;2022-08-18T06:59:21;24.85;63.25
13091;DHT22;6611;52.604;13.438;2022-08-18T07:04:57;24.88;61.21
13091;DHT22;6611;52.604;13.438;2022-08-18T07:09:59;24.93;63.31
13091;DHT22;6611;52.604;13.438;2022-08-18T07:15:03;24.96;63.27
13091;DHT22;6611;52.604;13.438;2022-08-18T07:20:09;25.15;60.44
13091;DHT22;6611;52.604;13.438;2022-08-18T07:25:21;25.23;61.53
13091;DHT22;6611;52.604;13.438;2022-08-18T07:30:30;25.34;61.85
13091;DHT22;6611;52.604;13.438;2022-08-18T07:35:35;25.44;62.29
13091;DHT22;6611;52.604;13.438;2022-08-18T07:40:44;25.57;62.88
13091;DHT22;6611;52.604;13.438;2022-08-18T07:45:49;25.61;60.13
13091;DHT22;6611;52.604;13.438;2022-08-18T07:51:00;25.82;61.24
13091;DHT22;6611;52.604;13.438;2022-08-18T07:56:06;25.97;60.64
13091;DHT22;6611;52.604;13.438;2022-08-18T08:01:18;26.12;60.76
13091;DHT22;6611;52.604;13.438;2022-08-18T08:06:27;26.24;58.67
13091;DHT22;6611;52.604;13.438;2022-08-18T08:11:41;26.33;60.05
13091;DHT22;6611;52.604;13.438;2022-08-18T08:16:48;26.39;58.97
13091;DHT22;6611;52.604;13.438;2022-08-18T08:21:56;26.51;59.14
13091;DHT22;6611;52.604;13.438;2022-08-18T08:27:05;26.61;59.13
13091;DHT22;6611;52.604;13.438;2022-08-18T08:32:15;26.75;59.45
13091;DHT22;6611;52.604;13.438;2022-08-18T08:37:27;26.79;58.81
13091;DHT22;6611;52.604;13.438;2022-08-18T08:42:36;26.99;59.38
13091;DHT22;6611;52.604;13.438;2022-08-18T08:47:54;27.07;57.84
13091;DHT22;6611;52.604;13.438;2022-08-18T08:53:00;27.23;56.50
13091;DHT22;6611;52.604;13.438;2022-08-18T08:58:13;27.41;56.26
13091;DHT22;6611;52.604;13.438;2022-08-18T09:03:33;27.59;55.16
13091;DHT22;6611;52.604;13.438;2022-08-18T09:08:58;27.62;54.94
13091;DHT22;6611;52.604;13.438;2022-08-18T09:14:24;27.82;53.78
13091;DHT22;6611;52.604;13.438;2022-08-18T09:19:48;27.96;54.05
13091;DHT22;6611;52.604;13.438;2022-08-18T09:24:58;28.27;54.10
13091;DHT22;6611;52.604;13.438;2022-08-18T09:30:01;28.41;52.67
13091;DHT22;6611;52.604;13.438;2022-08-18T09:35:23;28.61;51.91
13091;DHT22;6611;52.604;13.438;2022-08-18T09:40:27;28.80;51.89
13091;DHT22;6611;52.604;13.438;2022-08-18T09:45:57;29.16;52.58
13091;DHT22;6611;52.604;13.438;2022-08-18T09:51:34;29.44;50.08
13091;DHT22;6611;52.604;13.438;2022-08-18T09:57:05;29.68;50.03
13091;DHT22;6611;52.604;13.438;2022-08-18T10:02:09;29.69;50.63
13091;DHT22;6611;52.604;13.438;2022-08-18T10:07:31;29.82;50.37
13091;DHT22;6611;52.604;13.438;2022-08-18T10:12:50;29.98;48.93
13091;DHT22;6611;52.604;13.438;2022-08-18T10:18:05;30.17;48.96
13091;DHT22;6611;52.604;13.438;2022-08-18T10:23:40;30.57;48.18
13091;DHT22;6611;52.604;13.438;2022-08-18T10:28:52;30.79;46.69
13091;DHT22;6611;52.604;13.438;2022-08-18T10:34:00;30.99;46.93
13091;DHT22;6611;52.604;13.438;2022-08-18T10:39:05;31.00;46.76
13091;DHT22;6611;52.604;13.438;2022-08-18T10:44:12;31.16;45.56
13091;DHT22;6611;52.604;13.438;2022-08-18T10:49:21;30.95;46.00
13091;DHT22;6611;52.604;13.438;2022-08-18T10:54:32;30.65;45.95
13091;DHT22;6611;52.604;13.438;2022-08-18T10:59:40;30.85;47.38
13091;DHT22;6611;52.604;13.438;2022-08-18T11:04:46;31.42;44.00
13091;DHT22;6611;52.604;13.438;2022-08-18T11:09:51;31.86;44.35
13091;DHT22;6611;52.604;13.438;2022-08-18T11:15:13;32.24;43.75
13091;DHT22;6611;52.604;13.438;2022-08-18T11:20:19;32.38;40.96
13091;DHT22;6611;52.604;13.438;2022-08-18T11:25:25;32.62;41.75
13091;DHT22;6611;52.604;13.438;2022-08-18T11:30:30;32.80;40.23
13091;DHT22;6611;52.604;13.438;2022-08-18T11:35:43;32.80;40.27
13091;DHT22;6611;52.604;13.438;2022-08-18T11:40:48;33.04;38.23
13091;DHT22;6611;52.604;13.438;2022-08-18T11:45:53;32.85;38.69
13091;DHT22;6611;52.604;13.438;2022-08-18T11:50:59;33.30;37.42
13091;DHT22;6611;52.604;13.438;2022-08-18T11:56:10;33.43;36.80
13091;DHT22;6611;52.604;13.438;2022-08-18T12:01:37;33.59;37.87
13091;DHT22;6611;52.604;13.438;2022-08-18T12:06:49;33.81;37.20
13091;DHT22;6611;52.604;13.438;2022-08-18T12:11:56;33.93;36.73
13091;DHT22;6611;52.604;13.438;2022-08-18T12:16:58;33.89;35.94
13091;DHT22;6611;52.604;13.438;2022-08-18T12:22:00;33.99;37.00
13091;DHT22;6611;52.604;13.438;2022-08-18T12:27:16;33.66;37.59
13091;DHT22;6611;52.604;13.438;2022-08-18T12:32:18;33.55;36.44
13091;DHT22;6611;52.604;13.438;2022-08-18T12:37:23;33.24;36.82
13091;DHT22;6611;52.604;13.438;2022-08-18T12:42:26;33.38;35.35
13091;DHT22;6611;52.604;13.438;2022-08-18T12:47:28;33.72;36.40
13091;DHT22;6611;52.604;13.438;2022-08-18T12:52:30;34.03;36.04
13091;DHT22;6611;52.604;13.438;2022-08-18T12:57:34;34.10;38.24
13091;DHT22;6611;52.604;13.438;2022-08-18T13:02:36;33.65;38.11
13091;DHT22;6611;52.604;13.438;2022-08-18T13:07:37;33.58;38.13
13091;DHT22;6611;52.604;13.438;2022-08-18T13:12:40;33.31;38.13
13091;DHT22;6611;52.604;13.438;2022-08-18T13:17:42;33.33;38.03
13091;DHT22;6611;52.604;13.438;2022-08-18T13:22:43;33.61;37.94
13091;DHT22;6611;52.604;13.438;2022-08-18T13:27:46;33.53;38.19
13091;DHT22;6611;52.604;13.438;2022-08-18T13:32:51;33.50;38.87
13091;DHT22;6611;52.604;13.438;2022-08-18T13:37:54;33.61;38.29
13091;DHT22;6611;52.604;13.438;2022-08-18T13:42:57;33.61;37.51
13091;DHT22;6611;52.604;13.438;2022-08-18T13:47:59;33.51;39.50
13091;DHT22;6611;52.604;13.438;2022-08-18T13:53:01;33.44;38.37
13091;DHT22;6611;52.604;13.438;2022-08-18T13:58:04;33.68;37.49
13091;DHT22;6611;52.604;13.438;2022-08-18T14:03:07;34.08;37.03
13091;DHT22;6611;52.604;13.438;2022-08-18T14:08:08;34.21;36.45
13091;DHT22;6611;52.604;13.438;2022-08-18T14:13:14;34.08;36.57
13091;DHT22;6611;52.604;13.438;2022-08-18T14:18:15;33.69;36.32
13091;DHT22;6611;52.604;13.438;2022-08-18T14:23:17;33.50;37.76
13091;DHT22;6611;52.604;13.438;2022-08-18T14:28:37;33.58;36.29
13091;DHT22;6611;52.604;13.438;2022-08-18T14:33:39;33.41;36.89
13091;DHT22;6611;52.604;13.438;2022-08-18T14:38:41;32.50;40.04
13091;DHT22;6611;52.604;13.438;2022-08-18T14:43:44;31.29;43.50
13091;DHT22;6611;52.604;13.438;2022-08-18T14:48:46;30.16;46.16
13091;DHT22;6611;52.604;13.438;2022-08-18T14:53:47;29.68;48.04
13091;DHT22;6611;52.604;13.438;2022-08-18T14:58:50;29.54;48.75
13091;DHT22;6611;52.604;13.438;2022-08-18T15:03:52;29.39;49.25
13091;DHT22;6611;52.604;13.438;2022-08-18T15:08:54;29.35;49.25
13091;DHT22;6611;52.604;13.438;2022-08-18T15:13:57;29.38;48.29
13091;DHT22;6611;52.604;13.438;2022-08-18T15:19:00;29.31;49.48
13091;DHT22;6611;52.604;13.438;2022-08-18T15:24:03;29.31;48.05
13091;DHT22;6611;52.604;13.438;2022-08-18T15:29:25;28.99;49.71
13091;DHT22;6611;52.604;13.438;2022-08-18T15:34:27;28.82;50.33
13091;DHT22;6611;52.604;13.438;2022-08-18T15:39:29;28.72;50.38
13091;DHT22;6611;52.604;13.438;2022-08-18T15:44:32;28.72;50.68
13091;DHT22;6611;52.604;13.438;2022-08-18T15:49:33;28.71;51.22
13091;DHT22;6611;52.604;13.438;2022-08-18T15:54:35;28.64;50.80
13091;DHT22;6611;52.604;13.438;2022-08-18T15:59:38;28.69;51.13
13091;DHT22;6611;52.604;13.438;2022-08-18T16:04:39;28.78;51.00
13091;DHT22;6611;52.604;13.438;2022-08-18T16:09:41;28.85;50.69
13091;DHT22;6611;52.604;13.438;2022-08-18T16:14:44;28.79;52.01
13091;DHT22;6611;52.604;13.438;2022-08-18T16:19:45;28.69;53.94
13091;DHT22;6611;52.604;13.438;2022-08-18T16:24:48;28.27;54.37
13091;DHT22;6611;52.604;13.438;2022-08-18T16:29:51;28.02;54.70
13091;DHT22;6611;52.604;13.438;2022-08-18T16:34:53;27.89;52.85
13091;DHT22;6611;52.604;13.438;2022-08-18T16:39:54;27.75;53.27
13091;DHT22;6611;52.604;13.438;2022-08-18T16:44:57;27.72;52.77
13091;DHT22;6611;52.604;13.438;2022-08-18T16:49:59;27.27;55.15
13091;DHT22;6611;52.604;13.438;2022-08-18T16:55:00;26.67;59.97
13091;DHT22;6611;52.604;13.438;2022-08-18T17:00:05;25.97;63.85
13091;DHT22;6611;52.604;13.438;2022-08-18T17:05:24;25.43;66.29
13091;DHT22;6611;52.604;13.438;2022-08-18T17:10:26;25.00;67.95
13091;DHT22;6611;52.604;13.438;2022-08-18T17:15:29;24.54;76.23
13091;DHT22;6611;52.604;13.438;2022-08-18T17:20:33;24.12;77.02
13091;DHT22;6611;52.604;13.438;2022-08-18T17:25:35;23.53;80.44
13091;DHT22;6611;52.604;13.438;2022-08-18T17:30:45;22.87;81.20
13091;DHT22;6611;52.604;13.438;2022-08-18T17:35:48;22.76;83.52
13091;DHT22;6611;52.604;13.438;2022-08-18T17:40:51;22.94;85.00
13091;DHT22;6611;52.604;13.438;2022-08-18T17:45:57;22.88;84.15
13091;DHT22;6611;52.604;13.438;2022-08-18T17:51:02;22.92;83.35
13091;DHT22;6611;52.604;13.438;2022-08-18T17:56:25;22.79;85.18
13091;DHT22;6611;52.604;13.438;2022-08-18T18:01:30;22.65;83.58
13091;DHT22;6611;52.604;13.438;2022-08-18T18:06:37;22.61;83.93
13091;DHT22;6611;52.604;13.438;2022-08-18T18:11:41;22.51;84.12
13091;DHT22;6611;52.604;13.438;2022-08-18T18:16:59;22.55;85.25
13091;DHT22;6611;52.604;13.438;2022-08-18T18:22:04;22.43;85.82
13091;DHT22;6611;52.604;13.438;2022-08-18T18:27:27;22.39;85.94
13091;DHT22;6611;52.604;13.438;2022-08-18T18:32:33;22.27;85.26
13091;DHT22;6611;52.604;13.438;2022-08-18T18:37:44;22.17;85.40
13091;DHT22;6611;52.604;13.438;2022-08-18T18:42:46;22.16;85.92
13091;DHT22;6611;52.604;13.438;2022-08-18T18:47:56;22.19;85.94
13091;DHT22;6611;52.604;13.438;2022-08-18T18:53:10;22.13;86.10
13091;DHT22;6611;52.604;13.438;2022-08-18T18:58:20;22.10;87.16
13091;DHT22;6611;52.604;13.438;2022-08-18T19:03:33;22.09;87.24
13091;DHT22;6611;52.604;13.438;2022-08-18T19:08:43;22.13;86.90
13091;DHT22;6611;52.604;13.438;2022-08-18T19:13:51;22.13;86.62
13091;DHT22;6611;52.604;13.438;2022-08-18T19:18:59;22.19;85.72
13091;DHT22;6611;52.604;13.438;2022-08-18T19:24:12;22.14;85.96
13091;DHT22;6611;52.604;13.438;2022-08-18T19:29:17;22.17;86.91
13091;DHT22;6611;52.604;13.438;2022-08-18T19:34:24;22.19;86.16
13091;DHT22;6611;52.604;13.438;2022-08-18T19:39:31;22.16;85.95
13091;DHT22;6611;52.604;13.438;2022-08-18T19:44:39;22.20;85.71
13091;DHT22;6611;52.604;13.438;2022-08-18T19:49:49;22.09;86.40
13091;DHT22;6611;52.604;13.438;2022-08-18T19:55:06;22.08;86.96
13091;DHT22;6611;52.604;13.438;2022-08-18T20:00:16;22.08;86.59
13091;DHT22;6611;52.604;13.438;2022-08-18T20:05:36;22.05;86.41
13091;DHT22;6611;52.604;13.438;2022-08-18T20:10:48;22.03;86.29
13091;DHT22;6611;52.604;13.438;2022-08-18T20:16:08;21.85;86.04
13091;DHT22;6611;52.604;13.438;2022-08-18T20:21:41;21.93;87.05
13091;DHT22;6611;52.604;13.438;2022-08-18T20:26:47;22.06;87.22
13091;DHT22;6611;52.604;13.438;2022-08-18T20:31:52;22.03;87.08
13091;DHT22;6611;52.604;13.438;2022-08-18T20:37:05;21.99;87.72
13091;DHT22;6611;52.604;13.438;2022-08-18T20:42:41;21.95;88.42
13091;DHT22;6611;52.604;13.438;2022-08-18T20:48:16;21.88;88.45
13091;DHT22;6611;52.604;13.438;2022-08-18T20:53:38;21.88;88.70
13091;DHT22;6611;52.604;13.438;2022-08-18T20:58:50;21.89;88.78
13091;DHT22;6611;52.604;13.438;2022-08-18T21:03:53;21.93;88.35
13091;DHT22;6611;52.604;13.438;2022-08-18T21:08:56;21.96;88.51
13091;DHT22;6611;52.604;13.438;2022-08-18T21:13:59;22.08;87.89
13091;DHT22;6611;52.604;13.438;2022-08-18T21:19:06;22.01;87.92
13091;DHT22;6611;52.604;13.438;2022-08-18T21:24:30;21.84;88.91
13091;DHT22;6611;52.604;13.438;2022-08-18T21:29:32;21.64;90.17
13091;DHT22;6611;52.604;13.438;2022-08-18T21:34:38;21.74;90.12
13091;DHT22;6611;52.604;13.438;2022-08-18T21:39:50;21.86;89.56
13091;DHT22;6611;52.604;13.438;2022-08-18T21:44:55;21.77;89.53
13091;DHT22;6611;52.604;13.438;2022-08-18T21:50:00;21.71;89.98
13091;DHT22;6611;52.604;13.438;2022-08-18T21:55:07;21.75;89.88
13091;DHT22;6611;52.604;13.438;2022-08-18T22:00:19;21.68;89.01
13091;DHT22;6611;52.604;13.438;2022-08-18T22:05:26;21.65;88.29
13091;DHT22;6611;52.604;13.438;2022-08-18T22:10:31;21.67;89.16
13091;DHT22;6611;52.604;13.438;2022-08-18T22:15:50;21.65;89.07
13091;DHT22;6611;52.604;13.438;2022-08-18T22:20:53;21.65;88.76
13091;DHT22;6611;52.604;13.438;2022-08-18T22:26:05;21.64;88.62
13091;DHT22;6611;52.604;13.438;2022-08-18T22:31:08;21.57;88.26
13091;DHT22;6611;52.604;13.438;2022-08-18T22:36:13;21.34;88.31
13091;DHT22;6611;52.604;13.438;2022-08-18T22:41:18;21.37;89.12
13091;DHT22;6611;52.604;13.438;2022-08-18T22:46:20;21.30;88.25
13091;DHT22;6611;52.604;13.438;2022-08-18T22:51:25;21.36;89.37
13091;DHT22;6611;52.604;13.438;2022-08-18T22:56:29;21.46;89.31
13091;DHT22;6611;52.604;13.438;2022-08-18T23:01:30;21.43;89.29
13091;DHT22;6611;52.604;13.438;2022-08-18T23:06:33;21.36;89.64
13091;DHT22;6611;52.604;13.438;2022-08-18T23:11:37;21.40;89.26
13091;DHT22;6611;52.604;13.438;2022-08-18T23:16:38;21.33;89.31
13091;DHT22;6611;52.604;13.438;2022-08-18T23:21:44;21.24;89.96
13091;DHT22;6611;52.604;13.438;2022-08-18T23:26:50;21.32;89.62
13091;DHT22;6611;52.604;13.438;2022-08-18T23:31:52;21.40;89.61
13091;DHT22;6611;52.604;13.438;2022-08-18T23:36:55;21.30;90.01
13091;DHT22;6611;52.604;13.438;2022-08-18T23:41:59;21.24;89.93
13091;DHT22;6611;52.604;13.438;2022-08-18T23:47:01;21.24;90.02
13091;DHT22;6611;52.604;13.438;2022-08-18T23:52:03;21.19;90.11
13091;DHT22;6611;52.604;13.438;2022-08-18T23:57:06;21.15;90.14
